createdAt,value
2022-10-10T00:01:35.951Z,5.73
2022-10-10T00:06:38.281Z,3.10
2022-10-10T00:11:40.471Z,5.90
2022-10-10T00:16:42.912Z,6.33
2022-10-10T00:21:45.183Z,7.40
2022-10-10T00:26:47.482Z,7.23
2022-10-10T00:31:49.678Z,8.53
2022-10-10T00:36:51.987Z,8.47
2022-10-10T00:41:54.277Z,6.20
2022-10-10T00:46:56.483Z,6.60
2022-10-10T00:51:59.712Z,4.50
2022-10-10T00:57:08.726Z,6.83
2022-10-10T01:02:11.012Z,2.35
2022-10-10T01:07:19.772Z,7.13
2022-10-10T01:12:51.396Z,4.63
2022-10-10T01:18:05.970Z,5.93
2022-10-10T01:23:38.968Z,5.57
2022-10-10T01:28:53.011Z,3.63
2022-10-10T01:34:11.306Z,7.57
2022-10-10T01:39:22.773Z,24.30
2022-10-10T01:44:24.985Z,6.33
2022-10-10T01:49:31.239Z,5.23
2022-10-10T01:54:42.514Z,6.13
2022-10-10T01:59:58.605Z,4.27
2022-10-10T02:05:12.981Z,6.07
2022-10-10T02:10:18.256Z,4.97
2022-10-10T02:15:23.513Z,5.87
2022-10-10T02:20:27.459Z,5.53
2022-10-10T02:25:33.211Z,5.43
2022-10-10T02:30:37.131Z,6.90
2022-10-10T02:35:42.168Z,5.53
2022-10-10T02:40:45.603Z,9.37
2022-10-10T02:45:47.995Z,15.30
2022-10-10T02:50:50.247Z,17.90
2022-10-10T02:55:52.512Z,10.37
2022-10-10T03:00:54.828Z,8.93
2022-10-10T03:05:57.131Z,8.83
2022-10-10T03:11:01.547Z,20.60
2022-10-10T03:16:04.665Z,19.23
2022-10-10T03:21:07.234Z,11.63
2022-10-10T03:26:09.640Z,11.83
2022-10-10T03:31:11.882Z,14.33
2022-10-10T03:36:14.205Z,5.13
2022-10-10T03:41:16.410Z,3.37
2022-10-10T03:46:18.701Z,3.77
2022-10-10T03:51:21.079Z,10.20
2022-10-10T03:56:23.463Z,12.90
2022-10-10T04:01:25.931Z,9.23
2022-10-10T04:06:28.732Z,7.67
2022-10-10T04:11:30.952Z,4.97
2022-10-10T04:16:33.335Z,5.50
2022-10-10T04:21:35.762Z,5.57
2022-10-10T04:26:38.097Z,5.10
2022-10-10T04:31:40.365Z,3.87
2022-10-10T04:36:42.804Z,5.93
2022-10-10T04:41:50.133Z,13.57
2022-10-10T04:46:52.458Z,4.83
2022-10-10T04:51:54.837Z,9.47
2022-10-10T04:56:57.098Z,4.60
2022-10-10T05:02:01.741Z,3.50
2022-10-10T05:07:04.428Z,3.27
2022-10-10T05:12:09.057Z,3.87
2022-10-10T05:17:11.346Z,3.10
2022-10-10T05:22:13.582Z,5.33
2022-10-10T05:27:16.006Z,8.50
2022-10-10T05:32:18.265Z,5.47
2022-10-10T05:37:20.500Z,3.23
2022-10-10T05:42:22.906Z,3.53
2022-10-10T05:47:28.016Z,9.00
2022-10-10T05:52:31.465Z,3.13
2022-10-10T05:57:33.654Z,4.27
2022-10-10T06:02:36.190Z,4.30
2022-10-10T06:08:02.399Z,4.27
2022-10-10T06:13:00.721Z,3.30
2022-10-10T06:18:03.489Z,6.83
2022-10-10T06:23:06.808Z,5.60
2022-10-10T06:28:09.718Z,9.20
2022-10-10T06:33:12.885Z,4.50
2022-10-10T06:38:16.244Z,3.23
2022-10-10T06:43:18.735Z,1.80
2022-10-10T06:48:20.974Z,7.43
2022-10-10T06:53:23.419Z,2.27
2022-10-10T06:58:27.274Z,5.17
2022-10-10T07:03:30.277Z,3.60
2022-10-10T07:08:32.571Z,1.93
2022-10-10T07:13:35.832Z,3.80
2022-10-10T07:18:38.143Z,3.00
2022-10-10T07:23:40.445Z,4.53
2022-10-10T07:28:42.760Z,1.83
2022-10-10T07:33:50.141Z,2.43
2022-10-10T07:38:54.967Z,3.37
2022-10-10T07:43:57.342Z,3.07
2022-10-10T07:48:59.971Z,2.40
2022-10-10T07:54:02.563Z,4.87
2022-10-10T07:59:04.836Z,2.50
2022-10-10T08:04:07.029Z,3.63
2022-10-10T08:09:09.273Z,2.40
2022-10-10T08:14:11.597Z,6.23
2022-10-10T08:24:36.008Z,3.00
2022-10-10T08:29:38.165Z,3.13
2022-10-10T08:34:40.418Z,5.53
2022-10-10T08:39:42.603Z,1.67
2022-10-10T08:44:49.562Z,4.20
2022-10-10T08:50:27.803Z,2.27
2022-10-10T08:55:34.908Z,2.40
2022-10-10T09:00:43.623Z,4.17
2022-10-10T09:06:21.400Z,2.00
2022-10-10T09:11:54.200Z,1.20
2022-10-10T09:17:27.117Z,3.20
2022-10-10T09:22:34.438Z,2.23
2022-10-10T09:27:42.137Z,1.77
2022-10-10T09:32:51.975Z,2.97
2022-10-10T09:38:00.927Z,2.07
2022-10-10T09:43:12.975Z,3.13
2022-10-10T09:48:15.408Z,2.87
2022-10-10T09:53:17.820Z,4.73
2022-10-10T09:58:30.055Z,2.90
2022-10-10T10:03:35.037Z,2.60
2022-10-10T10:08:37.730Z,1.57
2022-10-10T10:13:39.983Z,2.67
2022-10-10T10:18:47.705Z,4.50
2022-10-10T10:23:58.909Z,3.60
2022-10-10T10:29:03.934Z,3.50
2022-10-10T10:34:21.405Z,3.57
2022-10-10T10:39:59.844Z,3.40
2022-10-10T10:45:19.334Z,4.43
2022-10-10T10:50:33.447Z,2.95
2022-10-10T10:55:54.656Z,2.77
2022-10-10T11:01:23.703Z,1.40
2022-10-10T11:07:20.604Z,3.23
2022-10-10T11:12:45.350Z,2.77
2022-10-10T11:17:58.262Z,2.10
2022-10-10T11:23:32.097Z,3.20
2022-10-10T11:29:03.847Z,3.20
2022-10-10T11:34:14.959Z,3.07
2022-10-10T11:39:21.489Z,3.47
2022-10-10T11:44:31.396Z,3.27
2022-10-10T11:49:52.970Z,3.23
2022-10-10T11:55:25.110Z,2.47
2022-10-10T12:00:29.480Z,2.80
2022-10-10T12:05:38.763Z,2.73
2022-10-10T12:10:45.889Z,1.95
2022-10-10T12:15:53.286Z,2.93
2022-10-10T12:21:14.189Z,3.70
2022-10-10T12:26:19.799Z,2.63
2022-10-10T12:31:32.003Z,6.37
2022-10-10T12:36:40.325Z,4.73
2022-10-10T12:41:47.118Z,3.57
2022-10-10T12:47:14.789Z,3.23
2022-10-10T12:52:36.150Z,2.50
2022-10-10T12:57:42.301Z,4.20
2022-10-10T13:02:55.730Z,4.03
2022-10-10T13:08:02.189Z,2.80
2022-10-10T13:13:17.721Z,2.92
2022-10-10T13:18:37.861Z,3.20
2022-10-10T13:29:27.913Z,3.23
2022-10-10T13:34:33.049Z,4.33
2022-10-10T13:39:38.061Z,6.37
2022-10-10T13:44:52.029Z,10.53
2022-10-10T13:49:56.063Z,6.87
2022-10-10T13:55:15.334Z,4.97
2022-10-10T14:00:22.747Z,3.92
2022-10-10T14:05:32.352Z,6.50
2022-10-10T14:15:42.555Z,48.17
2022-10-10T14:20:45.930Z,8.30
2022-10-10T14:25:49.469Z,7.00
2022-10-10T14:30:51.809Z,5.07
2022-10-10T14:35:56.786Z,6.93
2022-10-10T14:41:00.212Z,6.70
2022-10-10T14:46:04.086Z,5.07
2022-10-10T14:51:33.219Z,8.60
2022-10-10T14:57:07.195Z,9.80
2022-10-10T15:01:54.250Z,15.20
2022-10-10T15:07:12.319Z,24.50
2022-10-10T15:12:15.765Z,21.35
2022-10-10T15:17:17.979Z,20.70
2022-10-10T15:22:20.302Z,20.47
2022-10-10T15:27:22.634Z,18.40
2022-10-10T15:32:25.404Z,16.20
2022-10-10T15:37:27.922Z,22.40
2022-10-10T15:42:30.651Z,22.63
2022-10-10T15:47:32.981Z,16.70
2022-10-10T15:52:35.897Z,14.57
2022-10-10T15:57:40.949Z,9.33
2022-10-10T16:02:43.191Z,10.60
2022-10-10T16:07:48.349Z,11.80
2022-10-10T16:12:50.869Z,19.63
2022-10-10T16:17:53.098Z,20.73
2022-10-10T16:22:55.762Z,11.10
2022-10-10T16:27:58.010Z,19.70
2022-10-10T16:33:00.441Z,16.97
2022-10-10T16:38:02.687Z,18.80
2022-10-10T16:43:05.236Z,17.03
2022-10-10T16:48:07.474Z,13.50
2022-10-10T16:53:11.478Z,10.10
2022-10-10T16:58:13.808Z,19.47
2022-10-10T17:03:18.423Z,9.07
2022-10-10T17:08:20.646Z,10.60
2022-10-10T17:13:22.901Z,12.23
2022-10-10T17:18:25.080Z,11.20
2022-10-10T17:23:27.418Z,10.60
2022-10-10T17:28:29.675Z,40.63
2022-10-10T17:33:32.023Z,34.10
2022-10-10T17:38:40.045Z,39.47
2022-10-10T17:43:43.572Z,21.10
2022-10-10T17:48:48.598Z,14.97
2022-10-10T17:53:51.640Z,12.53
2022-10-10T17:58:54.170Z,17.03
2022-10-10T18:04:02.304Z,19.77
2022-10-10T18:09:06.092Z,12.23
2022-10-10T18:14:08.625Z,12.90
2022-10-10T18:19:11.667Z,13.97
2022-10-10T18:24:13.942Z,11.43
2022-10-10T18:29:16.265Z,8.77
2022-10-10T18:34:18.547Z,10.43
2022-10-10T18:39:20.843Z,11.70
2022-10-10T18:44:23.166Z,12.27
2022-10-10T18:49:27.819Z,11.53
2022-10-10T18:54:35.486Z,11.07
2022-10-10T18:59:37.833Z,12.90
2022-10-10T19:04:40.245Z,20.10
2022-10-10T19:09:45.365Z,31.37
2022-10-10T19:14:52.745Z,28.23
2022-10-10T19:19:55.079Z,70.97
2022-10-10T19:24:57.355Z,39.33
2022-10-10T19:30:00.021Z,22.80
2022-10-10T19:35:02.510Z,16.47
2022-10-10T19:40:06.032Z,14.23
2022-10-10T19:45:08.832Z,16.27
2022-10-10T19:50:11.071Z,17.20
2022-10-10T19:55:15.001Z,15.83
2022-10-10T20:00:17.467Z,14.10
2022-10-10T20:05:28.966Z,16.43
2022-10-10T20:10:34.407Z,14.30
2022-10-10T20:15:43.508Z,9.67
2022-10-10T20:20:49.763Z,12.57
2022-10-10T20:25:52.756Z,16.67
2022-10-10T20:30:58.213Z,143.33
2022-10-10T20:36:03.691Z,156.87
2022-10-10T20:41:07.338Z,76.97
2022-10-10T20:46:11.801Z,32.83
2022-10-10T20:51:14.341Z,26.07
2022-10-10T20:56:16.735Z,21.70
2022-10-10T21:01:21.409Z,17.00
2022-10-10T21:06:26.723Z,56.87
2022-10-10T21:11:32.358Z,35.90
2022-10-10T21:16:39.807Z,20.17
2022-10-10T21:21:42.577Z,11.03
2022-10-10T21:26:45.714Z,34.23
2022-10-10T21:31:47.921Z,20.47
2022-10-10T21:36:50.135Z,13.93
2022-10-10T21:41:52.315Z,21.70
2022-10-10T21:46:54.576Z,16.40
2022-10-10T21:51:56.749Z,15.60
2022-10-10T21:56:58.976Z,18.00
2022-10-10T22:02:01.207Z,12.80
2022-10-10T22:07:04.915Z,13.53
2022-10-10T22:12:08.073Z,11.83
2022-10-10T22:17:10.446Z,11.07
2022-10-10T22:22:12.879Z,7.80
2022-10-10T22:27:15.064Z,8.17
2022-10-10T22:32:17.299Z,9.93
2022-10-10T22:37:19.484Z,16.30
2022-10-10T22:42:21.740Z,7.40
2022-10-10T22:47:23.938Z,7.33
2022-10-10T22:52:26.317Z,4.57
2022-10-10T22:57:28.516Z,6.50
2022-10-10T23:02:30.893Z,5.93
2022-10-10T23:07:33.077Z,5.47
2022-10-10T23:12:35.348Z,5.90
2022-10-10T23:17:37.552Z,6.00
2022-10-10T23:22:39.776Z,6.33
2022-10-10T23:27:42.045Z,6.93
2022-10-10T23:32:44.206Z,4.93
2022-10-10T23:37:46.492Z,5.23
2022-10-10T23:42:48.633Z,4.00
2022-10-10T23:47:50.969Z,5.83
2022-10-10T23:52:53.115Z,5.87
2022-10-10T23:57:55.344Z,5.60
